WXM80 ListenWXM80 Stop

You find our weather info also at:

UK Metoffice

WeatherCloud

Weather Underground

Northeastern Weather Network

AWEKAS

Citizen Weather Observer Program (CWOP)

HAMweather, WeatherForYou, PWS Weather


Weather Underground History page Text

Daily Summary for November 4, 2017 Units:  Metric    English   Both
« Previous Day
Next Day »
Daily Weekly Monthly Yearly Custom
  High: Low: Average:
Temperature: 13.2 °C 9 °C 10.7 °C
Dew Point: 8.5 °C 3.7 °C 5.7 °C
Humidity: 88 % 61 % 71 %
Wind Speed: 17.9 km/h 0 km/h 5.6 km/h
Wind Gust: 29.6 km/h - -
Wind:- - East
Pressure: 1028.7 hPa 1019.2 hPa -
Precipitation: 0.25 mm    
Historical Graphs
 
 
Tabular Data for November 4, 2017
Time Temperature Dew Point Pressure Wind Wind Speed Wind Gust Humidity Rainfall Rate (Hourly)
00:02 11.6 °C 5 °C 1022.9 hPa NNE 16.4 km/h 22.2 km/h 64 % 0 mm
00:07 11.6 °C 5 °C 1022.9 hPa NNE 13 km/h 20.4 km/h 64 % 0 mm
00:12 11.5 °C 4.9 °C 1023.2 hPa NE 17.2 km/h 25.9 km/h 64 % 0 mm
00:17 11.4 °C 4.9 °C 1023.2 hPa NNE 14.6 km/h 20.4 km/h 64 % 0 mm
00:22 11.4 °C 4.6 °C 1023.2 hPa NNE 14.3 km/h 22.2 km/h 63 % 0 mm
00:27 11.3 °C 4.6 °C 1022.9 hPa NNE 11.6 km/h 24.1 km/h 63 % 0 mm
00:32 11.3 °C 4.5 °C 1023.2 hPa ENE 13.5 km/h 27.8 km/h 63 % 0 mm
00:37 11.2 °C 4.7 °C 1022.9 hPa NNE 13.5 km/h 20.4 km/h 64 % 0 mm
00:42 11.2 °C 4.4 °C 1023.2 hPa North 11.9 km/h 17.7 km/h 63 % 0 mm
00:47 11.1 °C 4.6 °C 1023.2 hPa NNE 17.9 km/h 25.7 km/h 64 % 0 mm
00:52 11.1 °C 4.6 °C 1023.6 hPa North 14.5 km/h 24.1 km/h 64 % 0 mm
00:57 11.1 °C 4.7 °C 1023.2 hPa NNE 11.3 km/h 20.9 km/h 65 % 0 mm
01:02 11.1 °C 4.3 °C 1023.6 hPa NNE 14.2 km/h 25.9 km/h 63 % 0 mm
01:07 11.1 °C 4.7 °C 1023.6 hPa NE 9.7 km/h 14.5 km/h 65 % 0 mm
01:12 11 °C 4.2 °C 1023.6 hPa North 15.4 km/h 25.9 km/h 63 % 0 mm
01:17 11 °C 4.7 °C 1023.2 hPa NNW 14 km/h 18.5 km/h 65 % 0 mm
01:22 10.9 °C 4.4 °C 1023.6 hPa NNE 12.1 km/h 22.2 km/h 64 % 0 mm
01:27 10.9 °C 4.4 °C 1023.6 hPa NNE 11.3 km/h 18.5 km/h 64 % 0 mm
01:32 10.9 °C 4.8 °C 1023.2 hPa North 13.2 km/h 22.2 km/h 66 % 0 mm
01:37 10.9 °C 4.6 °C 1023.2 hPa North 8.5 km/h 18.5 km/h 65 % 0 mm
01:43 10.8 °C 4.5 °C 1023.6 hPa North 14.6 km/h 22.2 km/h 65 % 0 mm
01:48 10.8 °C 4.7 °C 1023.6 hPa NNE 14.2 km/h 18.5 km/h 66 % 0 mm
01:53 10.8 °C 4.4 °C 1023.6 hPa NNW 11.9 km/h 18.5 km/h 65 % 0.25 mm
01:58 10.8 °C 4.7 °C 1023.6 hPa NNW 11.1 km/h 16.7 km/h 66 % 0.25 mm
02:03 10.7 °C 4.6 °C 1023.2 hPa North 14.6 km/h 22.2 km/h 66 % 0.25 mm
02:08 10.7 °C 4.6 °C 1023.2 hPa NNE 10.5 km/h 17.7 km/h 66 % 0.25 mm
02:13 10.7 °C 4.8 °C 1023.2 hPa NNW 10.6 km/h 18.5 km/h 67 % 0.25 mm
02:18 10.6 °C 4.9 °C 1024.3 hPa NNE 11.6 km/h 18.5 km/h 68 % 0.25 mm
02:23 10.6 °C 4.7 °C 1024.3 hPa NNW 14.3 km/h 25.9 km/h 67 % 0.25 mm
02:28 10.6 °C 4.9 °C 1024.6 hPa NNE 9.8 km/h 19.3 km/h 68 % 0.25 mm
02:33 10.5 °C 4.8 °C 1024.9 hPa North 12.2 km/h 20.4 km/h 68 % 0.25 mm
02:38 10.4 °C 5 °C 1023.9 hPa NNE 12.7 km/h 18.5 km/h 69 % 0.25 mm
02:43 10.4 °C 5 °C 1023.6 hPa NNE 8.7 km/h 20.4 km/h 69 % 0.25 mm
02:48 10.4 °C 4.9 °C 1024.9 hPa NE 10.9 km/h 18.5 km/h 69 % 0.25 mm
02:53 10.3 °C 4.7 °C 1023.6 hPa NNE 13.8 km/h 18.5 km/h 68 % 0 mm
02:58 10.3 °C 4.8 °C 1023.9 hPa NE 11.7 km/h 16.7 km/h 69 % 0 mm
03:03 10.3 °C 4.6 °C 1023.6 hPa NNE 12.6 km/h 20.4 km/h 68 % 0 mm
03:08 10.2 °C 4.8 °C 1023.6 hPa North 13.8 km/h 22.2 km/h 69 % 0 mm
03:14 10.2 °C 4.7 °C 1023.6 hPa North 14.3 km/h 22.2 km/h 69 % 0 mm
03:19 10.2 °C 4.9 °C 1023.6 hPa NNE 12.4 km/h 18.5 km/h 70 % 0 mm
03:24 10.2 °C 4.9 °C 1023.6 hPa North 10 km/h 18.5 km/h 70 % 0 mm
03:29 10.2 °C 4.7 °C 1023.6 hPa North 11.1 km/h 18.5 km/h 69 % 0 mm
03:34 10.1 °C 5.1 °C 1023.6 hPa NNE 13.2 km/h 18.5 km/h 71 % 0 mm
03:39 10.1 °C 5.1 °C 1024.9 hPa NNE 7.1 km/h 18.5 km/h 71 % 0 mm
03:44 10.1 °C 5.1 °C 1024.9 hPa North 7.7 km/h 11.1 km/h 71 % 0 mm
03:49 10 °C 5 °C 1023.6 hPa North 8 km/h 13 km/h 71 % 0 mm
03:54 9.9 °C 4.9 °C 1025.3 hPa North 4.8 km/h 5.6 km/h 71 % 0 mm
03:56 9.9 °C 4.9 °C 1025.3 hPa NNE 4.8 km/h 14.5 km/h 71 % 0 mm
04:01 9.9 °C 5.1 °C 1023.9 hPa North 10.8 km/h 14.8 km/h 72 % 0 mm
04:06 9.8 °C 5 °C 1024.3 hPa North 10.5 km/h 22.5 km/h 72 % 0 mm
04:11 9.8 °C 4.8 °C 1023.9 hPa North 7.6 km/h 14.8 km/h 71 % 0 mm
04:16 9.8 °C 4.9 °C 1023.6 hPa NNE 12.7 km/h 22.2 km/h 72 % 0 mm
04:21 9.8 °C 4.9 °C 1023.9 hPa North 5.3 km/h 13 km/h 72 % 0 mm
04:26 9.7 °C 4.9 °C 1025.3 hPa NNE 6.3 km/h 9.7 km/h 72 % 0 mm
04:31 9.7 °C 5.1 °C 1025.3 hPa NNE 12.2 km/h 16.7 km/h 73 % 0 mm
04:36 9.7 °C 4.8 °C 1023.9 hPa North 12.6 km/h 18.5 km/h 72 % 0 mm
04:41 9.7 °C 4.8 °C 1023.9 hPa NNE 8.2 km/h 11.3 km/h 72 % 0 mm
04:46 9.6 °C 4.8 °C 1023.9 hPa NNE 10.1 km/h 14.8 km/h 72 % 0 mm
04:51 9.6 °C 4.8 °C 1024.3 hPa NNE 7.7 km/h 13 km/h 72 % 0 mm
04:56 9.6 °C 4.8 °C 1024.6 hPa NNE 7.7 km/h 18.5 km/h 72 % 0 mm
05:01 9.6 °C 4.9 °C 1026.3 hPa North 9 km/h 16.7 km/h 73 % 0 mm
05:06 9.6 °C 4.9 °C 1024.6 hPa NNE 7.1 km/h 14.8 km/h 73 % 0 mm
05:11 9.5 °C 5.1 °C 1026.3 hPa North 7.1 km/h 13 km/h 74 % 0 mm
05:16 9.5 °C 4.7 °C 1026.3 hPa NNE 10 km/h 18.5 km/h 72 % 0 mm
05:21 9.4 °C 4.4 °C 1024.9 hPa NE 11.1 km/h 18.5 km/h 71 % 0 mm
05:26 9.4 °C 4.4 °C 1025.3 hPa ENE 7.2 km/h 16.7 km/h 71 % 0 mm
05:31 9.4 °C 4.4 °C 1024.9 hPa North 6.8 km/h 13 km/h 71 % 0 mm
05:36 9.4 °C 4.4 °C 1024.9 hPa NNE 9.2 km/h 16.7 km/h 71 % 0 mm
05:41 9.3 °C 4.6 °C 1025.6 hPa North 10.9 km/h 18.5 km/h 72 % 0 mm
05:46 9.3 °C 4.6 °C 1025.6 hPa NNE 3.9 km/h 12.9 km/h 72 % 0 mm
05:51 9.3 °C 4.5 °C 1026.6 hPa East 7.7 km/h 16.1 km/h 72 % 0 mm
05:56 9.3 °C 4.5 °C 1025.6 hPa North 11.1 km/h 14.8 km/h 72 % 0 mm
06:01 9.2 °C 4.4 °C 1025.6 hPa North 14 km/h 18.5 km/h 72 % 0 mm
06:06 9.2 °C 4.2 °C 1026.6 hPa NNW 13 km/h 18.5 km/h 71 % 0 mm
06:11 9.2 °C 4.2 °C 1025.6 hPa NNE 8.2 km/h 14.5 km/h 71 % 0 mm
06:16 9.2 °C 4.2 °C 1026 hPa North 10.3 km/h 18.5 km/h 71 % 0 mm
06:21 9.1 °C 4.1 °C 1026 hPa North 8.7 km/h 12.9 km/h 71 % 0 mm
06:26 9.1 °C 3.9 °C 1026 hPa NNE 10.5 km/h 18.5 km/h 70 % 0 mm
06:31 9.1 °C 3.9 °C 1026.6 hPa NNE 9.8 km/h 18.5 km/h 70 % 0 mm
06:36 9.1 °C 4.1 °C 1026.6 hPa North 5.3 km/h 11.1 km/h 71 % 0 mm
06:41 9.1 °C 3.9 °C 1026.6 hPa NNE 16.7 km/h 29.6 km/h 70 % 0 mm
06:42 9.1 °C 3.7 °C 1026.6 hPa NE 11.6 km/h 22.2 km/h 69 % 0 mm
06:47 9.1 °C 3.9 °C 1026.6 hPa NNE 9.3 km/h 19.3 km/h 70 % 0 mm
06:52 9.1 °C 3.9 °C 1026.6 hPa NNE 5.8 km/h 11.3 km/h 70 % 0 mm
06:57 9.1 °C 3.9 °C 1026.6 hPa NE 7.1 km/h 24.1 km/h 70 % 0 mm
07:02 9.1 °C 3.9 °C 1027 hPa North 10.1 km/h 20.4 km/h 70 % 0 mm
07:07 9.1 °C 3.9 °C 1027 hPa North 14.8 km/h 22.2 km/h 70 % 0 mm
07:12 9.1 °C 4.1 °C 1026.6 hPa North 15.1 km/h 22.2 km/h 71 % 0 mm
07:18 9.1 °C 4.1 °C 1027 hPa ENE 6.1 km/h 18.5 km/h 71 % 0 mm
07:23 9.1 °C 4.3 °C 1027 hPa NNE 8.5 km/h 18.5 km/h 72 % 0 mm
07:28 9.1 °C 4.3 °C 1027 hPa NNE 10.9 km/h 16.7 km/h 72 % 0 mm
07:33 9 °C 4.2 °C 1027 hPa NNE 11.9 km/h 16.7 km/h 72 % 0 mm
07:38 9 °C 4 °C 1027 hPa NNE 11.1 km/h 18.5 km/h 71 % 0 mm
07:43 9 °C 4.2 °C 1027.3 hPa North 10.1 km/h 18.5 km/h 72 % 0 mm
07:48 9 °C 4 °C 1027.3 hPa North 12.6 km/h 18.5 km/h 71 % 0 mm
07:53 9 °C 4 °C 1027.3 hPa NNE 7.6 km/h 14.8 km/h 71 % 0 mm
07:58 9 °C 4.2 °C 1027.3 hPa NNE 6.9 km/h 18.5 km/h 72 % 0 mm
08:03 9 °C 4.2 °C 1027.7 hPa NNE 6.1 km/h 16.7 km/h 72 % 0 mm
08:08 9 °C 4.2 °C 1027.7 hPa NE 7.7 km/h 14.8 km/h 72 % 0 mm
08:13 9 °C 4.2 °C 1028 hPa North 7.9 km/h 16.7 km/h 72 % 0 mm
08:18 9.1 °C 4.3 °C 1028 hPa NNE 4.8 km/h 11.1 km/h 72 % 0 mm
08:23 9.1 °C 4.5 °C 1028.3 hPa NE 1.8 km/h 5.6 km/h 73 % 0 mm
08:28 9.1 °C 4.3 °C 1028.3 hPa NNE 5.5 km/h 11.1 km/h 72 % 0 mm
08:33 9.1 °C 4.1 °C 1028.3 hPa North 6.8 km/h 12.9 km/h 71 % 0 mm
08:38 9.2 °C 4.4 °C 1028.3 hPa East 5.5 km/h 9.7 km/h 72 % 0 mm
08:43 9.2 °C 4.4 °C 1027.3 hPa East 6.6 km/h 16.7 km/h 72 % 0 mm
08:48 9.3 °C 4.5 °C 1028.3 hPa North 4 km/h 5.6 km/h 72 % 0 mm
08:53 9.3 °C 4.7 °C 1028.3 hPa North 3.9 km/h 6.4 km/h 73 % 0 mm
08:58 9.3 °C 4.7 °C 1028.3 hPa ENE 6.6 km/h 11.1 km/h 73 % 0 mm
09:03 9.3 °C 4.7 °C 1028 hPa ENE 6.8 km/h 13 km/h 73 % 0 mm
09:08 9.4 °C 4.6 °C 1028.3 hPa ENE 8.5 km/h 14.5 km/h 72 % 0 mm
09:13 9.4 °C 4.2 °C 1028.3 hPa ENE 6 km/h 16.7 km/h 70 % 0 mm
09:18 9.6 °C 4.6 °C 1028.3 hPa ENE 5.3 km/h 6.4 km/h 71 % 0 mm
09:23 9.6 °C 4.4 °C 1028.3 hPa NE 5 km/h 11.1 km/h 70 % 0 mm
09:29 9.7 °C 4.5 °C 1028.3 hPa East 10.5 km/h 14.8 km/h 70 % 0 mm
09:34 9.8 °C 4.4 °C 1028.3 hPa NE 8.9 km/h 11.3 km/h 69 % 0 mm
09:39 10.1 °C 4.4 °C 1028.3 hPa ENE 6.4 km/h 11.1 km/h 68 % 0 mm
09:44 10.4 °C 4.6 °C 1028.7 hPa ENE 9.8 km/h 16.7 km/h 67 % 0 mm
09:49 10.7 °C 4.6 °C 1028.3 hPa ENE 8.4 km/h 14.8 km/h 66 % 0 mm
09:54 10.8 °C 4.7 °C 1028.3 hPa ENE 9.2 km/h 16.7 km/h 66 % 0 mm
09:59 10.9 °C 4.6 °C 1028.3 hPa NE 7.9 km/h 18.5 km/h 65 % 0 mm
10:04 10.9 °C 4.6 °C 1028.3 hPa North 5.3 km/h 14.8 km/h 65 % 0 mm
10:09 11 °C 4.9 °C 1028.3 hPa NE 6.8 km/h 9.7 km/h 66 % 0 mm
10:14 10.9 °C 4.8 °C 1028.3 hPa ENE 6.4 km/h 11.1 km/h 66 % 0 mm
10:19 11.1 °C 5.2 °C 1028.3 hPa NE 10.3 km/h 16.7 km/h 67 % 0 mm
10:24 11.1 °C 4.5 °C 1028.3 hPa NNE 6.6 km/h 13 km/h 64 % 0 mm
10:29 11.2 °C 5.1 °C 1028.3 hPa ENE 5.8 km/h 11.1 km/h 66 % 0 mm
10:34 11.3 °C 5 °C 1028.3 hPa NNE 7.9 km/h 13 km/h 65 % 0 mm
10:39 11.4 °C 4.6 °C 1028.7 hPa East 7.4 km/h 14.8 km/h 63 % 0 mm
10:42 11.3 °C 4.3 °C 1028.7 hPa ENE 8.2 km/h 13 km/h 62 % 0 mm
10:47 11.3 °C 4.8 °C 1028.7 hPa NNE 4.7 km/h 13 km/h 64 % 0 mm
10:52 11.3 °C 5 °C 1028.3 hPa ENE 5.8 km/h 18.5 km/h 65 % 0 mm
11:02 11.4 °C 4.9 °C 1028.3 hPa ENE 8.9 km/h 14.8 km/h 64 % 0 mm
11:07 11.4 °C 4.9 °C 1028.3 hPa NE 9.3 km/h 14.8 km/h 64 % 0 mm
11:12 11.4 °C 5.3 °C 1028 hPa NE 6.1 km/h 9.7 km/h 66 % 0 mm
11:17 11.6 °C 5.2 °C 1028.3 hPa ENE 11.6 km/h 14.8 km/h 65 % 0 mm
11:22 11.7 °C 5.1 °C 1028.3 hPa ENE 8 km/h 14.8 km/h 64 % 0 mm
11:27 11.7 °C 5.1 °C 1028.3 hPa ENE 7.1 km/h 14.8 km/h 64 % 0 mm
11:32 11.8 °C 5.4 °C 1028.3 hPa ENE 9.5 km/h 16.1 km/h 65 % 0 mm
11:37 11.7 °C 5.1 °C 1028.3 hPa ENE 8.9 km/h 14.8 km/h 64 % 0 mm
11:42 11.7 °C 4.8 °C 1028 hPa East 6.9 km/h 14.5 km/h 63 % 0 mm
11:47 11.7 °C 5.1 °C 1028 hPa ENE 6.8 km/h 13 km/h 64 % 0 mm
11:52 11.8 °C 5.4 °C 1028 hPa ENE 6.3 km/h 11.1 km/h 65 % 0 mm
11:57 11.8 °C 5.2 °C 1028 hPa ENE 4.5 km/h 13 km/h 64 % 0 mm
12:02 11.8 °C 5.2 °C 1027.7 hPa ENE 9.5 km/h 11.1 km/h 64 % 0 mm
12:07 11.9 °C 5.3 °C 1028 hPa ENE 8.5 km/h 13 km/h 64 % 0 mm
12:12 12.1 °C 5.2 °C 1028 hPa ENE 8.5 km/h 14.8 km/h 63 % 0 mm
12:17 12.1 °C 5.3 °C 1027.7 hPa ENE 7.7 km/h 11.3 km/h 63 % 0 mm
12:23 12.1 °C 5.9 °C 1027.7 hPa ENE 4.2 km/h 5.6 km/h 66 % 0 mm
12:28 12.1 °C 5.7 °C 1027.7 hPa East 9.8 km/h 13 km/h 65 % 0 mm
12:33 11.9 °C 5.3 °C 1027.7 hPa ENE 5.6 km/h 11.1 km/h 64 % 0 mm
12:38 11.8 °C 5.2 °C 1027.7 hPa ENE 8.7 km/h 13 km/h 64 % 0 mm
12:43 11.7 °C 4.9 °C 1027.7 hPa ENE 7.6 km/h 13 km/h 63 % 0 mm
12:48 11.7 °C 5.3 °C 1027.7 hPa ENE 6.9 km/h 11.1 km/h 65 % 0 mm
12:53 11.7 °C 5.3 °C 1027.7 hPa ENE 10.8 km/h 14.8 km/h 65 % 0 mm
12:58 11.8 °C 5.4 °C 1027.7 hPa NE 5.5 km/h 7.4 km/h 65 % 0 mm
13:03 11.8 °C 5.2 °C 1027.7 hPa ENE 6.1 km/h 8 km/h 64 % 0 mm
13:08 11.8 °C 5.2 °C 1028 hPa ENE 1.8 km/h 3.7 km/h 64 % 0 mm
13:13 11.9 °C 5.5 °C 1027.7 hPa ENE 1 km/h 3.2 km/h 65 % 0 mm
13:18 11.9 °C 5.5 °C 1027.7 hPa East 1.9 km/h 5.6 km/h 65 % 0 mm
13:23 11.9 °C 5.3 °C 1027.7 hPa ENE 2.7 km/h 5.6 km/h 64 % 0 mm
13:28 11.9 °C 4.7 °C 1027 hPa NE 7.2 km/h 13 km/h 61 % 0 mm
13:33 11.9 °C 5.3 °C 1027.3 hPa East 1.4 km/h 3.2 km/h 64 % 0 mm
13:38 12 °C 5.2 °C 1027.3 hPa ENE 0.2 km/h 3.7 km/h 63 % 0 mm
13:43 12.1 °C 5.2 °C 1027 hPa ENE 1 km/h 3.2 km/h 63 % 0 mm
13:48 12.1 °C 5.5 °C 1027 hPa East 0.6 km/h 3.7 km/h 64 % 0 mm
13:53 12.2 °C 5.6 °C 1027 hPa East 0.6 km/h 3.7 km/h 64 % 0 mm
13:58 12.3 °C 5.5 °C 1027 hPa Calm   3.7 km/h 63 % 0 mm
14:03 12.4 °C 5.6 °C 1027 hPa East 1.9 km/h 3.2 km/h 63 % 0 mm
14:09 12.5 °C 5.4 °C 1026.6 hPa ENE 0.3 km/h 1.9 km/h 62 % 0 mm
14:13 12.6 °C 6 °C 1026.6 hPa ENE 0.2 km/h 3.7 km/h 64 % 0 mm
14:18 12.6 °C 5.7 °C 1026.6 hPa NE 0.6 km/h 3.7 km/h 63 % 0 mm
14:23 12.7 °C 6.1 °C 1026.6 hPa Calm   1.9 km/h 64 % 0 mm
14:28 12.8 °C 6.1 °C 1026.6 hPa NE 0.2 km/h 5.6 km/h 64 % 0 mm
14:34 12.9 °C 6.4 °C 1026.6 hPa ENE 5.8 km/h 6.4 km/h 65 % 0 mm
14:39 12.9 °C 6 °C 1026.3 hPa ENE 5.3 km/h 7.4 km/h 63 % 0 mm
14:44 13 °C 6.1 °C 1026.3 hPa NE 3.7 km/h 7.4 km/h 63 % 0 mm
14:49 13.1 °C 6.2 °C 1026.3 hPa ENE 3.1 km/h 7.4 km/h 63 % 0 mm
14:54 13.1 °C 6 °C 1026.3 hPa NE 4.2 km/h 6.4 km/h 62 % 0 mm
14:59 13.1 °C 6 °C 1026.3 hPa ENE 1 km/h 13 km/h 62 % 0 mm
15:00 13.1 °C 6.2 °C 1026.3 hPa Calm   1.9 km/h 63 % 0 mm
15:05 13.2 °C 6.5 °C 1026.3 hPa ENE 0.2 km/h 1.9 km/h 64 % 0 mm
15:10 13.2 °C 6.5 °C 1026.3 hPa ENE 2.3 km/h 5.6 km/h 64 % 0 mm
15:15 13.2 °C 6.3 °C 1026.3 hPa ENE 1.4 km/h 3.7 km/h 63 % 0 mm
15:20 13.1 °C 6.2 °C 1026.3 hPa ENE 3.9 km/h 5.6 km/h 63 % 0 mm
15:25 12.9 °C 6.5 °C 1026.6 hPa Calm     65 % 0 mm
15:30 12.9 °C 6.7 °C 1026.3 hPa ENE 0.2 km/h 1.9 km/h 66 % 0 mm
15:35 12.8 °C 6.8 °C 1026.3 hPa NE 0.3 km/h 1.9 km/h 67 % 0 mm
15:40 12.8 °C 6.4 °C 1026.3 hPa Calm   1.9 km/h 65 % 0 mm
15:45 12.8 °C 6.3 °C 1026.6 hPa ENE 1 km/h 3.7 km/h 65 % 0 mm
15:50 12.7 °C 6.5 °C 1026.6 hPa ENE 2.7 km/h 4.8 km/h 66 % 0 mm
15:55 12.7 °C 6.5 °C 1026.6 hPa Calm   1.9 km/h 66 % 0 mm
16:01 12.6 °C 6.4 °C 1026.6 hPa ENE 4.3 km/h 5.6 km/h 66 % 0 mm
16:06 12.6 °C 6.6 °C 1026.6 hPa Calm   6.4 km/h 67 % 0 mm
16:11 12.6 °C 6.6 °C 1026.6 hPa ENE 1.6 km/h 3.2 km/h 67 % 0 mm
16:16 12.6 °C 6.6 °C 1026.6 hPa Calm   3.2 km/h 67 % 0 mm
16:21 12.5 °C 6.6 °C 1026.6 hPa Calm     67 % 0 mm
16:26 12.5 °C 6.3 °C 1026.6 hPa ENE 1 km/h 3.2 km/h 66 % 0 mm
16:31 12.4 °C 6.3 °C 1026.6 hPa ENE 1.6 km/h 6.4 km/h 66 % 0 mm
16:36 12.4 °C 6.5 °C 1026.6 hPa ENE 2.9 km/h 5.6 km/h 67 % 0 mm
16:41 12.4 °C 6.2 °C 1026.6 hPa Calm   3.2 km/h 66 % 0 mm
16:46 12.4 °C 6.4 °C 1026.6 hPa Calm   3.2 km/h 67 % 0 mm
16:51 12.4 °C 6.7 °C 1026.6 hPa NE 0.2 km/h 1.9 km/h 68 % 0 mm
16:56 12.3 °C 6.8 °C 1026.6 hPa ENE 1.3 km/h 3.7 km/h 69 % 0 mm
17:01 12.3 °C 6.8 °C 1026.6 hPa Calm     69 % 0 mm
17:06 12.3 °C 6.9 °C 1026.6 hPa Calm   1.9 km/h 70 % 0 mm
17:12 12.2 °C 6.9 °C 1026.6 hPa Calm     70 % 0 mm
17:16 12.2 °C 6.8 °C 1026.6 hPa Calm     70 % 0 mm
17:22 12.1 °C 7 °C 1026.6 hPa Calm     71 % 0 mm
17:27 12.1 °C 6.9 °C 1026.6 hPa Calm     71 % 0 mm
17:32 12 °C 6.9 °C 1026.6 hPa Calm     71 % 0 mm
17:37 11.9 °C 6.8 °C 1026.6 hPa Calm     71 % 0 mm
17:42 11.8 °C 6.7 °C 1026.6 hPa Calm     71 % 0 mm
17:47 11.8 °C 6.7 °C 1026.6 hPa ENE 0.2 km/h 1.9 km/h 71 % 0 mm
17:52 11.7 °C 6.8 °C 1026.6 hPa Calm     72 % 0 mm
17:57 11.6 °C 6.7 °C 1026.6 hPa Calm     72 % 0 mm
18:02 11.5 °C 6.8 °C 1028 hPa East 0.8 km/h 5.6 km/h 73 % 0 mm
18:07 11.3 °C 6.9 °C 1028 hPa East 2.9 km/h 4.8 km/h 74 % 0 mm
18:08 11.3 °C 6.9 °C 1028 hPa East 2.7 km/h 5.6 km/h 74 % 0 mm
18:13 11.2 °C 6.9 °C 1027.7 hPa SE 3.7 km/h 5.6 km/h 75 % 0 mm
18:18 11.1 °C 6.8 °C 1027.7 hPa SE 4.7 km/h 5.6 km/h 75 % 0 mm
18:24 10.9 °C 6.7 °C 1027 hPa SE 1.6 km/h 5.6 km/h 75 % 0 mm
18:29 10.8 °C 6.6 °C 1027 hPa SE 2.7 km/h 3.7 km/h 75 % 0 mm
18:34 10.7 °C 6.4 °C 1027 hPa SE 2.4 km/h 5.6 km/h 75 % 0 mm
18:39 10.6 °C 6.3 °C 1027 hPa SSE 1.3 km/h 5.6 km/h 75 % 0 mm
18:44 10.5 °C 6.4 °C 1027 hPa SE 1.1 km/h 3.7 km/h 76 % 0 mm
18:45 10.4 °C 6.4 °C 1027 hPa SE 1.3 km/h 3.7 km/h 76 % 0 mm
18:50 10.3 °C 6.3 °C 1027 hPa SE 1.4 km/h 5.6 km/h 76 % 0 mm
18:56 10.3 °C 6.2 °C 1028 hPa SE 1.6 km/h 6.4 km/h 76 % 0 mm
19:01 10.2 °C 6.3 °C 1027.3 hPa SSE 1.9 km/h 5.6 km/h 77 % 0 mm
19:06 10.1 °C 6.3 °C 1027 hPa SE 1 km/h 5.6 km/h 77 % 0 mm
19:11 10 °C 6.2 °C 1027 hPa SE 1.6 km/h 8 km/h 77 % 0 mm
19:16 9.9 °C 6.3 °C 1027 hPa SE 1.6 km/h 8 km/h 78 % 0 mm
19:21 9.9 °C 6.2 °C 1027 hPa Calm   6.4 km/h 78 % 0 mm
19:26 9.8 °C 6.4 °C 1027 hPa Calm   1.6 km/h 79 % 0 mm
19:31 9.8 °C 6.3 °C 1027 hPa Calm     79 % 0 mm
19:36 9.7 °C 6.3 °C 1027 hPa Calm   3.2 km/h 79 % 0 mm
19:41 9.7 °C 6.2 °C 1027 hPa Calm   3.2 km/h 79 % 0 mm
19:46 9.6 °C 6.3 °C 1027 hPa Calm   3.2 km/h 80 % 0 mm
19:51 9.6 °C 6.3 °C 1027 hPa Calm   1.6 km/h 80 % 0 mm
19:56 9.6 °C 6.3 °C 1027 hPa Calm   3.2 km/h 80 % 0 mm
20:01 9.6 °C 6.3 °C 1027 hPa Calm   3.7 km/h 80 % 0 mm
20:06 9.5 °C 6.4 °C 1027 hPa Calm   1.9 km/h 81 % 0 mm
20:11 9.5 °C 6.4 °C 1027 hPa Calm   3.7 km/h 81 % 0 mm
20:16 9.4 °C 6.3 °C 1027 hPa SE 1.3 km/h 3.7 km/h 81 % 0 mm
20:21 9.4 °C 6.5 °C 1026.6 hPa Calm   1.9 km/h 82 % 0 mm
20:26 9.4 °C 6.4 °C 1027 hPa SE 1.6 km/h 3.7 km/h 82 % 0 mm
20:31 9.3 °C 6.4 °C 1026.6 hPa Calm     82 % 0 mm
20:36 9.3 °C 6.4 °C 1026.6 hPa Calm     82 % 0 mm
20:41 9.3 °C 6.6 °C 1026.6 hPa Calm     83 % 0 mm
20:46 9.3 °C 6.6 °C 1026.6 hPa SE 0.5 km/h 3.7 km/h 83 % 0 mm
20:51 9.2 °C 6.5 °C 1026.6 hPa Calm     83 % 0 mm
20:56 9.2 °C 6.7 °C 1027 hPa Calm   1.9 km/h 84 % 0 mm
21:01 9.2 °C 6.6 °C 1026.6 hPa Calm   1.9 km/h 84 % 0 mm
21:06 9.2 °C 6.6 °C 1026.6 hPa Calm     84 % 0 mm
21:11 9.1 °C 6.6 °C 1027 hPa SE 0.2 km/h 1.6 km/h 84 % 0 mm
21:16 9.2 °C 6.8 °C 1027 hPa SE 0.3 km/h 1.9 km/h 85 % 0 mm
21:21 9.2 °C 7.1 °C 1026.6 hPa ESE 1.6 km/h 1.9 km/h 87 % 0 mm
21:26 9.3 °C 7.4 °C 1026.6 hPa ESE 1.4 km/h 3.7 km/h 88 % 0 mm
21:32 9.4 °C 7.6 °C 1026.6 hPa ESE 1 km/h 3.7 km/h 88 % 0 mm
21:37 9.6 °C 7.7 °C 1026.6 hPa ESE 1.1 km/h 5.6 km/h 88 % 0 mm
21:42 9.8 °C 7.9 °C 1027 hPa ESE 0.6 km/h 3.7 km/h 88 % 0 mm
21:47 9.9 °C 8.1 °C 1027 hPa East 2.9 km/h 5.6 km/h 88 % 0 mm
21:52 10.2 °C 8.3 °C 1026.6 hPa ENE 2.9 km/h 9.3 km/h 88 % 0 mm
21:57 10.3 °C 8.3 °C 1026.6 hPa East 3.1 km/h 5.6 km/h 87 % 0 mm
22:02 10.5 °C 8.3 °C 1026.3 hPa East 4.3 km/h 7.4 km/h 86 % 0 mm
22:07 10.6 °C 8.4 °C 1026.3 hPa East 3.9 km/h 8 km/h 86 % 0 mm
22:12 10.8 °C 8.3 °C 1026.3 hPa East 1.8 km/h 3.7 km/h 85 % 0 mm
22:17 10.8 °C 8.4 °C 1026.3 hPa East 1.9 km/h 3.7 km/h 85 % 0 mm
22:22 10.9 °C 8.4 °C 1026.3 hPa ESE 2.6 km/h 8 km/h 85 % 0 mm
22:27 11 °C 8.4 °C 1026.3 hPa ENE 2.1 km/h 5.6 km/h 84 % 0 mm
22:32 11 °C 8.4 °C 1026 hPa East 2.1 km/h 7.4 km/h 84 % 0 mm
22:37 11.1 °C 8.3 °C 1026.3 hPa East 4 km/h 7.4 km/h 83 % 0 mm
22:42 11.1 °C 8.3 °C 1026.3 hPa East 0.8 km/h 3.7 km/h 83 % 0 mm
22:47 11.1 °C 8.3 °C 1027 hPa Calm   1.6 km/h 83 % 0 mm
22:52 11.1 °C 8.3 °C 1027 hPa East 0.5 km/h 1.9 km/h 83 % 0 mm
22:57 11.1 °C 8.3 °C 1027 hPa East 0.2 km/h 3.7 km/h 83 % 0 mm
23:02 11.1 °C 8.3 °C 1027.3 hPa Calm     83 % 0 mm
23:08 11.1 °C 8.3 °C 1027 hPa East 0.6 km/h 3.7 km/h 83 % 0 mm
23:15 11.1 °C 8.3 °C 1027.3 hPa Calm   1.9 km/h 83 % 0 mm
23:20 11.1 °C 8.3 °C 1028.3 hPa Calm     83 % 0 mm
23:21 11.1 °C 8.3 °C 1028.3 hPa ESE 1.1 km/h 3.7 km/h 83 % 0 mm
23:26 11.1 °C 8.3 °C 1028.3 hPa Calm   4.8 km/h 83 % 0 mm
23:27 11.1 °C 8.3 °C 1019.2 hPa East 0.5 km/h 3.7 km/h 83 % 0 mm
23:32 11.1 °C 8.3 °C 1027.3 hPa SE 0.5 km/h 1.9 km/h 83 % 0 mm
23:36 11.1 °C 8.3 °C 1027.3 hPa SE 0.5 km/h 1.9 km/h 83 % 0 mm
23:41 11.2 °C 8.4 °C 1027.7 hPa SE 0.2 km/h 1.9 km/h 83 % 0 mm
23:46 11.2 °C 8.4 °C 1028 hPa SE 0.2 km/h 1.9 km/h 83 % 0 mm
23:51 11.2 °C 8.4 °C 1028 hPa SE 2.1 km/h 3.7 km/h 83 % 0 mm
23:56 11.3 °C 8.5 °C 1028 hPa ENE 2.1 km/h 3.7 km/h 83 % 0 mm
Crab Meadow Weather
Compliments of Weather Underground - 3 mb

Script developed by  Jim McMurry - jmcmurry@mwt.net Adapted for the template by  Wim van der Kuil - Leuven-Template.eu

Pollen: Each year American vegetation spews forth some 1,000,000 tons of pollen into the air we breathe.